Netawaka, Kansas
Current Conditions -  °F | °C
As of 6:53 PM on Wednesday 17 Dec 2014 (Local Time) from KFNB Reporting Station
Overcast Overcast  
Wind Chill: 23°   Ceiling: 7000
Heat Index: 28°   Visibility: 10mi
Dew Point: 21°   Wind: 5mph
Humidity: 75%   Direction: 110°ESE
Pressure: 30.25"   Gusts: NA
Location:  39.6°N, 95.72°W
Report Text: KFNB 180053Z AUTO 11004KT 10SM OVC070 M02/M06 A3025 RMK AO2 SLP256 T10221061
Loading
Personal Weather Stations






























Interactive Weather Map New forecast layout! Learn more

10-Day Weather Forecast

Advertisements
Track Severe Weather on mobile